Racecast

Jay County Fairgrounds

Difficulty:i -0.7% (5000m, the usual distance here) · 496 results · 460 athletes

All 5000m 3000m
Rating scale ?

Distances raced here

DistanceDifficultyiResults FirstLast
5000m -0.7% 452 2010-10-02 2024-09-10
3000m +6.3% 44 2015-09-24 2019-09-26

Best speed ratings all distances

Boys

#AthleteRatingi TimeDistSchoolDate
1 Eli Chamberlain 127.6 11:48 3000m Monroe Central (IN) 2019-09-26
2 Josh Neideck 127.6 16:07 5000m Eastbrook (IN) 2013-10-05
3 Stefan Harry 126.2 16:11 5000m Wapahani (IN) 2011-10-01
4 Spencer Schulze 122.4 16:48 5000m St. Henry (OH) 2013-10-05
5 Caden Shumaker 122.3 12:18 3000m Monroe Central (IN) 2015-09-24
6 Brandon Blackmer 121.1 16:59 5000m Wes-Del (IN) 2013-10-05
7 Hayden Taylor 121.0 12:27 3000m Monroe Central (IN) 2019-09-26
8 Mason Bledsoe 120.7 17:02 5000m Hagerstown (IN) 2013-10-05
9 Nathan Daniels 119.8 12:34 3000m Monroe Central (IN) 2019-09-26
10 Macon Shroyer 119.0 17:10 5000m Wapahani (IN) 2011-10-01
11 Drew Barber 117.3 17:32 5000m Wapahani (IN) 2013-10-05
12 Justin Hoying 117.2 17:33 5000m St. Henry (OH) 2013-10-05
13 Mariano Flores 116.9 17:35 5000m Leo (IN) 2013-10-05
14 Scott Knapke 116.8 17:36 5000m St. Henry (OH) 2013-10-05
15 Austin Brown 116.6 17:38 5000m Wes-Del (IN) 2013-10-05
16 Evan Bishop 116.5 17:39 5000m Wes-Del (IN) 2013-10-05
17 Travis Sutter 116.3 17:41 5000m Ft. Recovery (OH) 2013-10-05
18 Drew Brant 116.3 17:41 5000m Wapahani (IN) 2013-10-05
19 Caleb Garringer 116.2 17:34.6 5000m Jay County (IN) 2024-09-10
20 Will Emery 116.2 17:42 5000m Leo (IN) 2013-10-05
21 Carter Miller 116.0 12:58 3000m Monroe Central (IN) 2015-09-24
22 Tucker Burris 115.9 12:59 3000m Monroe Central (IN) 2015-09-24
23 Robert Wilkinson 115.7 17:46 5000m Wapahani (IN) 2013-10-05
24 Jevon Osborne 115.6 17:47 5000m Hagerstown (IN) 2013-10-05
25 Ryan Barhorst 115.4 17:49 5000m St. Henry (OH) 2013-10-05
26 Dash Thacker 115.2 17:42.9 5000m Jay County (IN) 2024-09-10
27 Alex Hemmelgarn 115.2 17:51 5000m St. Henry (OH) 2013-10-05
28 Derek Sutter 115.1 17:52 5000m Ft. Recovery (OH) 2013-10-05
29 Kessler Fisher 114.4 17:58 5000m Northeastern (MA) 2013-10-05
30 Kyle Demick 114.3 17:59 5000m Shenandoah (IN) 2013-10-05
31 Alec Hicks 114.2 18:00 5000m Hagerstown (IN) 2013-10-05
32 Brandon Dillman 114.2 18:00 5000m Centerville (OH) 2013-10-05
33 Brett Holder 114.2 18:00 5000m Eastbrook (IN) 2013-10-05
34 Chris Justice 114.2 17:57 5000m Hagerstown (IN) 2010-10-02
35 Trevor Gabbard 114.1 18:01 5000m Cambridge City Lincoln (IN) 2013-10-05
36 Aaron Patton 114.0 18:02 5000m Madison-Grant (IN) 2013-10-05
37 Isaac Siegrist 114.0 18:02 5000m Ft. Recovery (OH) 2013-10-05
38 Zach Davis 113.8 18:04 5000m Hagerstown (IN) 2013-10-05
39 Garrett Burns 113.8 18:04 5000m Leo (IN) 2013-10-05
40 Jake Austerman 113.7 18:05 5000m Northeastern (MA) 2013-10-05
41 Hunter Patterson 113.7 17:57.8 5000m Winchester Community (IN) 2024-09-10
42 Clay Clark 113.5 18:00 5000m Hagerstown (IN) 2011-10-01
43 Brad Burchell 112.9 18:13 5000m Eastbrook (IN) 2013-10-05
44 Joey Gonzalez 112.8 18:14 5000m Ft. Recovery (OH) 2013-10-05
45 John Hawley 112.7 18:15 5000m Leo (IN) 2013-10-05
46 Chris Lauer 112.5 18:16 5000m Leo (IN) 2013-10-05
47 Brian Szymanski 112.5 18:17 5000m Leo (IN) 2013-10-05
48 AJ Zeiger 112.0 18:21 5000m Wapahani (IN) 2013-10-05
49 Hayden Fleming 111.8 18:23 5000m Daleville (IN) 2013-10-05
50 Mason Fisher 111.7 18:24 5000m Northeastern (MA) 2013-10-05
51 Matthias Ritter 111.6 18:25 5000m Hagerstown (IN) 2013-10-05
52 Daxton Stevens 111.6 18:25 5000m Wapahani (IN) 2013-10-05
53 Zach Wittman 111.6 18:22 5000m Daleville (IN) 2010-10-02
54 Jesse Privett 111.5 18:26 5000m Muncie Central (IN) 2013-10-05
55 Matt Flynn 111.5 18:26 5000m Union (Modoc) (IN) 2013-10-05
56 Robert Smith 110.7 18:34 5000m Northeastern (MA) 2013-10-05
57 Sean McDaniel 110.7 18:31 5000m Hagerstown (IN) 2010-10-02
58 Travis Muller 110.2 18:36 5000m Hagerstown (IN) 2010-10-02
59 Lane Dance 109.8 13:43 3000m Monroe Central (IN) 2019-09-26
60 Ian Bloom 109.7 18:45 5000m Cambridge City Lincoln (IN) 2013-10-05

View all →

Girls

#AthleteRatingi TimeDistSchoolDate
1 Lindsey Marriott 132.9 18:30 5000m Leo (IN) 2013-10-05
2 Hayley Rogers 131.2 18:40 5000m Hagerstown (IN) 2011-10-01
3 Megan Wellman 123.4 19:56 5000m Jay County (IN) 2013-10-05
4 Katie Simmons 123.0 20:00 5000m Jay County (IN) 2010-10-02
5 Lindsey Schulze 122.0 20:10 5000m St. Henry (OH) 2013-10-05
6 Elle Sutter 121.6 20:14 5000m Ft. Recovery (OH) 2013-10-05
7 Courtney Kunk 121.2 20:18 5000m St. Henry (OH) 2013-10-05
8 Abigail Johnson 121.0 20:20 5000m Jay County (IN) 2013-10-05
9 Kearstin McDaniel 120.7 20:23 5000m Hagerstown (IN) 2010-10-02
10 Joanna Smith 120.6 20:24 5000m Hagerstown (IN) 2010-10-02
11 Ashley Mosley 120.3 20:27 5000m Northeastern (MA) 2010-10-02
12 Leah Wellman 120.1 20:29 5000m Jay County (IN) 2010-10-02
13 Shelby Short 120.0 20:30 5000m Centerville (OH) 2013-10-05
14 Ellie Rodman 119.8 20:32 5000m Eastbrook (IN) 2013-10-05
15 Breann Fawcett 119.5 20:35 5000m Leo (IN) 2013-10-05
16 Kyleigh Blackmer 118.7 20:43 5000m Wes-Del (IN) 2013-10-05
17 Sierra Colvin 118.4 20:46 5000m Eastbrook (IN) 2013-10-05
18 Michaela McCurdy 118.0 20:51 5000m Liberty Christian (TX) 2013-10-05
19 Amelia Dick 117.8 20:53 5000m Hagerstown (IN) 2013-10-05
20 Kellie Fortkamp 117.8 20:53 5000m Jay County (IN) 2013-10-05
21 Tori Galloway 117.5 20:56 5000m Madison-Grant (IN) 2013-10-05
22 Abby May 117.0 21:01 5000m Ft. Recovery (OH) 2010-10-02
23 Makayla Hoying 116.6 21:06 5000m St. Henry (OH) 2013-10-05
24 Emi Minnich 116.3 21:09 5000m Jay County (IN) 2013-10-05
25 Kate Graddy 116.2 21:10 5000m Shenandoah (IN) 2013-10-05
26 Ashley Toschlog 116.1 21:11 5000m Centerville (OH) 2013-10-05
27 Eme Miller 115.7 21:16 5000m Jay County (IN) 2010-10-02
28 Grace Gehle 115.4 21:19 5000m Ft. Recovery (OH) 2013-10-05
29 Audrey Webster 115.2 21:21 5000m Northeastern (MA) 2010-10-02
30 Riley Post 114.4 21:30 5000m St. Henry (OH) 2013-10-05
31 Jenny Osterholt 114.2 21:32 5000m St. Henry (OH) 2013-10-05
32 Michaela Rector 113.9 21:36 5000m Wes-Del (IN) 2013-10-05
33 Alli Lauer 113.7 21:38 5000m Leo (IN) 2013-10-05
34 Kayli Burke 113.4 21:42 5000m Cambridge City Lincoln (IN) 2010-10-02
35 Samantha Tobe 113.3 21:43 5000m Ft. Recovery (OH) 2010-10-02
36 Jessica Vogel 113.2 21:44 5000m Ft. Recovery (OH) 2010-10-02
37 Breanna Schulze 113.2 21:44 5000m St. Henry (OH) 2013-10-05
38 Katelyn Goettemoeller 113.0 21:46 5000m St. Henry (OH) 2013-10-05
39 Hannah Seward 112.8 21:48 5000m Eastbrook (IN) 2013-10-05
40 Sydney Denhart 112.4 21:53 5000m Hagerstown (IN) 2013-10-05
41 Kylee Davis 112.3 21:54 5000m Cambridge City Lincoln (IN) 2010-10-02
42 Ashley Jay 112.2 21:55 5000m Northeastern (MA) 2013-10-05
43 Logan Laux 111.7 22:02 5000m Jay County (IN) 2010-10-02
44 Kasey Reneau 111.4 21:59 5000m Hagerstown (IN) 2011-10-01
45 Hannah Greiner 111.4 22:05 5000m Muncie Central (IN) 2013-10-05
46 Nyla Rueter 111.2 22:07 5000m Hagerstown (IN) 2010-10-02
47 Alexis Sutter 111.1 22:09 5000m Ft. Recovery (OH) 2010-10-02
48 Brooklyn Byrum 111.0 22:11.2 5000m Jay County (IN) 2024-09-10
49 Nicole Heitkamp 111.0 22:10 5000m Ft. Recovery (OH) 2010-10-02
50 Julie Wendel 111.0 22:10 5000m Ft. Recovery (OH) 2013-10-05
51 Liz Lennartz 110.8 22:12 5000m Jay County (IN) 2010-10-02
52 Kaitlin Hemmelgarn 110.8 22:12 5000m Jay County (IN) 2013-10-05
53 Ava Jefferis 110.6 22:16.1 5000m Union City (NJ) 2024-09-10
54 Cadence Harter 110.4 22:17 5000m Shenandoah (IN) 2013-10-05
55 Miranda Gerber 110.3 22:18 5000m Jay County (IN) 2010-10-02
56 Halie Ontrop 110.2 22:20 5000m St. Henry (OH) 2010-10-02
57 Abbi Dunlavy 110.0 22:22 5000m Jay County (IN) 2013-10-05
58 Alyssa Jackson 109.9 22:23 5000m Wapahani (IN) 2010-10-02
59 Haylee Cooper 109.9 22:23 5000m Wapahani (IN) 2013-10-05
60 Gabby Willis 109.8 22:24 5000m Hagerstown (IN) 2013-10-05

View all →

Best team performances by rating top-5 average rating, one race, all distances

Boys

#SchoolTop-5 avg DistMeetDate
1 St. Henry (OH) 117.4 5000m Jay County Invitational 2013-10-05
2 Monroe Central (IN) 117.3 3000m Monroe Centra/Union/Wes-Del @ East Jay 2019-09-26
3 Hagerstown (IN) 115.2 5000m Jay County Invitational 2013-10-05
4 Wapahani (IN) 114.6 5000m Jay County Invitational 2013-10-05
5 Leo (IN) 114.4 5000m Jay County Invitational 2013-10-05
6 Eastbrook (IN) 113.2 5000m Jay County Invitational 2013-10-05
7 Wes-Del (IN) 113.0 5000m Jay County Invitational 2013-10-05
8 Ft. Recovery (OH) 112.4 5000m Jay County Invitational 2013-10-05
9 Northeastern (MA) 111.8 5000m Jay County Invitational 2013-10-05
10 Shenandoah (IN) 109.2 5000m Jay County Invitational 2013-10-05
11 Jay County (IN) 109.2 5000m Jay County three-way vs Winchester & Union City 2024-09-10
12 Muncie Central (IN) 106.4 5000m Jay County Invitational 2013-10-05
13 Daleville (IN) 105.6 5000m Jay County Invitational 2013-10-05
14 Centerville (OH) 104.5 5000m Jay County Invitational 2013-10-05
15 Madison-Grant (IN) 101.6 5000m Jay County Invitational 2013-10-05
16 Cambridge City Lincoln (IN) 100.0 5000m Jay County Invitational 2013-10-05
17 Winchester Community (IN) 99.8 5000m Jay County three-way vs Winchester & Union City 2024-09-10
18 Liberty Christian (TX) 98.9 5000m Jay County Invitational 2013-10-05
19 Union (Modoc) (IN) 96.2 5000m Jay County Invitational 2013-10-05

View all →

Girls

#SchoolTop-5 avg DistMeetDate
1 Jay County (IN) 117.8 5000m Jay County Invitational 2013-10-05
2 St. Henry (OH) 117.7 5000m Jay County Invitational 2013-10-05
3 Hagerstown (IN) 117.1 5000m Jay Invitational 2010-10-02
4 Ft. Recovery (OH) 115.0 5000m Jay Invitational 2010-10-02
5 Leo (IN) 113.7 5000m Jay County Invitational 2013-10-05
6 Eastbrook (IN) 112.9 5000m Jay County Invitational 2013-10-05
7 Northeastern (MA) 108.9 5000m Jay Invitational 2010-10-02
8 Cambridge City Lincoln (IN) 106.4 5000m Jay Invitational 2010-10-02
9 Muncie Central (IN) 103.4 5000m Jay County Invitational 2013-10-05
10 Wapahani (IN) 102.7 5000m Jay Invitational 2010-10-02
11 Shenandoah (IN) 101.1 5000m Jay Invitational 2010-10-02
12 Winchester Community (IN) 92.8 5000m Jay County three-way vs Winchester & Union City 2024-09-10

View all →

Meets held here all distances

MeetLast heldDistanceResults
Jay County three-way vs Winchester & Union City 2024-09-10 5000 38
Monroe Centra/Union/Wes-Del @ East Jay 2019-09-26 3000 25
East Jay, Wes-Del, Monroe Central 2015-09-24 3000 19
Jay County Invitational 2013-10-05 5000 286
Jay Invitational 2011-10-01 5000 39
Jay Invitational 2010-10-02 5000 89

View all →